Iquique, Chile
Current Conditions -  °F | °C
As of 5:00 AM on Friday 24 Oct 2014 (Local Time) from SCDA Reporting Station
Overcast Overcast  
Wind Chill: 64°   Ceiling: 2300
Heat Index: 64°   Visibility: 6mi
Dew Point: 54°   Wind: 5mph
Humidity: 68%   Direction: 70°ENE
Pressure: 29.97"   Gusts: NA
Location:  20.23°S, 70.14°W
Report Text: SCDA 240900Z 07004KT 9999 OVC023 18/12 Q1015
Loading
Personal Weather Stations






























Interactive Weather Map
Tropical Storm Tracking
New forecast layout! Learn more

10-Day Weather Forecast

Advertisements
Track Severe Weather on mobile